White Oak, Kentucky
Current Conditions -  °F | °C
As of 9:53 PM on Saturday 22 Nov 2014 (Local Time) from KJKL Reporting Station
Clear Clear  
Wind Chill: 50°   Ceiling: Unl
Heat Index: 50°   Visibility: 10mi
Dew Point: 27°   Wind: 3mph
Humidity: 41%   Direction: 200°SSW
Pressure: 30.14"   Gusts: NA
Location:  37.937°N, 83.2694°W
Report Text: KJKL 230253Z AUTO 20003KT 10SM CLR 10/M03 A3014 RMK AO2 SLP207 T01001028 58009
Loading
Personal Weather Stations






























Interactive Weather Map New forecast layout! Learn more

10-Day Weather Forecast

Advertisements
Track Severe Weather on mobile